Hovedside
METAR-TAF:

METAR-TAF

Lufthavner :

Kununurra, Australia

breddegrad: 15-46S, lengdegrad: 128-42E, høyde over havet: 44 m

Gjeldene værobservasjon

Denne rapporten ble laget for 30 minutter siden, klokken 03:00 UTC
Vind 11 kt fra Sørøst
Temperatur 26°C
Luftfuktighet 32%
Trykk 1018 hPa
Sikt 10 km eller mer

METAR: YPKU 220300Z AUTO 14011KT 9999 // NCD 26/08 Q1018 RF00.0/000.0

Tid: 11:30 (03:30 UTC)

Varsel

Denne rapporten ble laget for 2 timer og 57 minutter siden, klokken 00:33 UTC
Varsel gyldig fra 22. klokken 02 UTC til 22. klokken 14 UTC
Vind 15 kt fra Øst-sørøst med vindkast opp mot 25 kt
Sikt 10 km eller mer
ingen skyer under 1500 m og ingen bygeskyer
Fra 22. klokken 0300 UTC
Vind 12 kt fra Sørøst
Sikt 10 km eller mer
ingen skyer under 1500 m og ingen bygeskyer
Fra 22. klokken 0900 UTC
Vind 7 kt fra Sørøst
Sikt 10 km eller mer
ingen skyer under 1500 m og ingen bygeskyer

TAF: YPKU 220033Z 2202/2214 12015G25KT CAVOK FM220300 14012KT CAVOK FM220900 13007KT CAVOK

Værobservasjoner og værvarsel for over 4000 flyplasser (METAR- og TAF-rapporter).

Tilgjengelige stasjoner er representert av de røde og gule prikkene på kartet.

Hold musepekeren over prikken for å se navnet på stasjonen.

Klikk så for å se værobservasjoner og -varsler.

For å forandre kartet kan du klikke på den grønne knappen med svart kryss for å zoome inn, på den grønne knappen med strek for å zoome ut, eller på de grønne pilene for å se tilstøtende kart.


METAR-TAF: